Vyacheslav Tikhonov — UBSH6 — position and weather

sailwx.info

Track history (hours):
 
Tides and Currents Weather Stations Pressure Air Temp Water Temp Dewpoint Dewpoint Depression Visibility Wind Speed Wind Dir Waves Ship Positions

Vyacheslav Tikhonov

Last reported at 2016-Dec-20 19:24 UTC. Time now 2017-Jan-22 10:20 UTC.
Position N 54°42' E 020°27'.
Warning: this ship's position is 32 days out of date.

Length 84 m; draft 6.8 m.

Type: Other ship. MMSI: 273350140.

Date/timePositionNaut miles runAvg speedWind from/ knotsBaromVisibWave heightAir tempDewpointWater temp
2016-Dec-20 19:24N 54°42' E 020°27'0 0.0
2016-Dec-20 12:30N 54°42' E 020°27'0 0.0
2016-Dec-20 11:30N 54°42' E 020°27'0 0.0
2016-Dec-20 10:15N 54°42' E 020°27'  
2016-Dec-17 15:27N 54°42' E 020°27'0 0.0
2016-Dec-17 14:30N 54°42' E 020°27'0 0.0
2016-Dec-17 11:30N 54°42' E 020°27'0 0.0
2016-Dec-17 10:24N 54°42' E 020°27'0 0.0
2016-Dec-17 09:12N 54°42' E 020°27'0 0.0
2016-Dec-17 08:30N 54°42' E 020°27'0 0.0
2016-Dec-17 05:30N 54°42' E 020°27'  
2016-Dec-11 15:16N 54°40' E 019°49'2 2.4
2016-Dec-11 14:31N 54°39' E 019°46'2 1.7
2016-Dec-11 13:21N 54°40' E 019°43'4 2.2
2016-Dec-11 11:24N 54°44' E 019°38'4 5.3
2016-Dec-11 10:34N 54°46' E 019°32'5 5.0
2016-Dec-11 09:34N 54°48' E 019°24'8 6.2
2016-Dec-11 08:15N 54°52' E 019°12'1 1.4
2016-Dec-11 07:30N 54°52' E 019°10'4 4.7
2016-Dec-11 06:34N 54°55' E 019°04'1010.4
2016-Dec-11 05:33N 55°00' E 018°48'1010.2
2016-Dec-11 04:33N 55°03' E 018°31'9510.5
2016-Dec-10 19:33N 55°19' E 015°48'  
Track history (hours):
 
Tides and Currents Weather Stations Pressure Air Temp Water Temp Dewpoint Dewpoint Depression Visibility Wind Speed Wind Dir Waves Ship Positions

Vyacheslav Tikhonov

Last reported at 2016-Dec-20 19:24 UTC. Time now 2017-Jan-22 10:20 UTC.
Position N 54°42' E 020°27'.
Warning: this ship's position is 32 days out of date.

Length 84 m; draft 6.8 m.

Type: Other ship. MMSI: 273350140.

Date/timePositionNaut miles runAvg speedWind from/ knotsBaromVisibWave heightAir tempDewpointWater temp
2016-Dec-20 19:24N 54°42' E 020°27'0 0.0
2016-Dec-20 12:30N 54°42' E 020°27'0 0.0
2016-Dec-20 11:30N 54°42' E 020°27'0 0.0
2016-Dec-20 10:15N 54°42' E 020°27'  
2016-Dec-17 15:27N 54°42' E 020°27'0 0.0
2016-Dec-17 14:30N 54°42' E 020°27'0 0.0
2016-Dec-17 11:30N 54°42' E 020°27'0 0.0
2016-Dec-17 10:24N 54°42' E 020°27'0 0.0
2016-Dec-17 09:12N 54°42' E 020°27'0 0.0
2016-Dec-17 08:30N 54°42' E 020°27'0 0.0
2016-Dec-17 05:30N 54°42' E 020°27'  
2016-Dec-11 15:16N 54°40' E 019°49'2 2.4
2016-Dec-11 14:31N 54°39' E 019°46'2 1.7
2016-Dec-11 13:21N 54°40' E 019°43'4 2.2
2016-Dec-11 11:24N 54°44' E 019°38'4 5.3
2016-Dec-11 10:34N 54°46' E 019°32'5 5.0
2016-Dec-11 09:34N 54°48' E 019°24'8 6.2
2016-Dec-11 08:15N 54°52' E 019°12'1 1.4
2016-Dec-11 07:30N 54°52' E 019°10'4 4.7
2016-Dec-11 06:34N 54°55' E 019°04'1010.4
2016-Dec-11 05:33N 55°00' E 018°48'1010.2
2016-Dec-11 04:33N 55°03' E 018°31'9510.5
2016-Dec-10 19:33N 55°19' E 015°48'  

Dump ship's entire track history